createdAt,value
2022-08-05T00:00:17.302Z,74.40
2022-08-05T00:02:50.953Z,75.42
2022-08-05T00:06:01.922Z,76.16
2022-08-05T00:08:35.215Z,75.89
2022-08-05T00:11:00.426Z,75.44
2022-08-05T00:13:38.285Z,75.67
2022-08-05T00:16:12.203Z,75.87
2022-08-05T00:18:42.193Z,75.78
2022-08-05T00:21:09.659Z,76.17
2022-08-05T00:23:46.028Z,75.39
2022-08-05T00:26:20.814Z,73.93
2022-08-05T00:28:49.495Z,72.27
2022-08-05T00:31:16.751Z,73.31
2022-08-05T00:34:56.057Z,72.90
2022-08-05T00:37:12.424Z,72.18
2022-08-05T00:39:41.486Z,74.15
2022-08-05T00:42:11.548Z,73.83
2022-08-05T00:44:58.511Z,73.72
2022-08-05T00:47:26.615Z,73.91
2022-08-05T00:50:13.565Z,74.70
2022-08-05T00:52:40.377Z,72.96
2022-08-05T00:55:07.471Z,72.67
2022-08-05T00:57:55.303Z,73.68
2022-08-05T01:00:22.031Z,74.59
2022-08-05T01:02:53.125Z,74.53
2022-08-05T01:05:20.138Z,74.58
2022-08-05T01:08:40.188Z,76.12
2022-08-05T01:10:56.344Z,77.26
2022-08-05T01:13:58.403Z,75.42
2022-08-05T01:16:39.307Z,75.68
2022-08-05T01:19:18.311Z,76.56
2022-08-05T01:21:58.395Z,74.08
2022-08-05T01:24:58.035Z,71.13
2022-08-05T01:27:55.135Z,71.81
2022-08-05T01:30:34.216Z,74.68
2022-08-05T01:33:06.132Z,76.67
2022-08-05T01:35:51.920Z,77.01
2022-08-05T01:38:27.091Z,77.40
2022-08-05T01:40:56.280Z,76.57
2022-08-05T01:43:24.742Z,76.33
2022-08-05T01:45:56.721Z,74.73
2022-08-05T01:48:26.312Z,74.32
2022-08-05T01:50:55.584Z,74.21
2022-08-05T01:53:57.433Z,75.09
2022-08-05T01:56:11.723Z,74.56
2022-08-05T01:58:40.989Z,72.88
2022-08-05T02:01:24.659Z,72.55
2022-08-05T02:03:53.700Z,74.23
2022-08-05T02:06:37.808Z,75.65
2022-08-05T02:09:06.379Z,74.88
2022-08-05T02:11:42.288Z,71.70
2022-08-05T02:14:18.775Z,71.58
2022-08-05T02:16:52.842Z,71.59
2022-08-05T02:19:46.911Z,71.26
2022-08-05T02:22:27.386Z,71.65
2022-08-05T02:25:02.119Z,73.37
2022-08-05T02:27:59.289Z,73.85
2022-08-05T02:30:22.190Z,73.19
2022-08-05T02:32:51.900Z,73.78
2022-08-05T02:35:27.655Z,71.51
2022-08-05T02:37:55.803Z,70.72
2022-08-05T02:40:26.194Z,72.21
2022-08-05T02:42:55.345Z,71.32
2022-08-05T02:45:24.484Z,72.44
2022-08-05T02:48:06.337Z,73.72
2022-08-05T02:50:39.031Z,74.01
2022-08-05T02:53:12.046Z,74.04
2022-08-05T02:55:53.730Z,72.15
2022-08-05T02:58:23.192Z,74.58
2022-08-05T03:00:56.167Z,73.87
2022-08-05T03:03:23.419Z,73.23
2022-08-05T03:06:54.059Z,72.03
2022-08-05T03:08:42.338Z,73.42
2022-08-05T03:11:55.382Z,72.05
2022-08-05T03:14:13.295Z,71.46
2022-08-05T03:16:41.071Z,71.12
2022-08-05T03:19:16.884Z,72.41
2022-08-05T03:21:48.718Z,72.58
2022-08-05T03:24:29.419Z,73.60
2022-08-05T03:27:01.243Z,74.05
2022-08-05T03:29:45.392Z,73.58
2022-08-05T03:32:16.501Z,71.71
2022-08-05T03:34:50.697Z,72.90
2022-08-05T03:37:19.724Z,72.63
2022-08-05T03:39:59.219Z,73.85
2022-08-05T03:42:29.224Z,72.57
2022-08-05T03:44:58.882Z,73.37
2022-08-05T03:47:35.212Z,73.82
2022-08-05T03:50:02.554Z,72.94
2022-08-05T03:52:50.074Z,73.70
2022-08-05T03:56:05.885Z,71.92
2022-08-05T03:58:16.854Z,71.35
2022-08-05T04:00:46.463Z,71.80
2022-08-05T04:03:28.864Z,72.31
2022-08-05T04:05:57.645Z,71.97
2022-08-05T04:08:30.253Z,71.96
2022-08-05T04:11:04.796Z,73.00
2022-08-05T04:13:50.268Z,72.70
2022-08-05T04:16:24.223Z,73.59
2022-08-05T04:19:00.066Z,73.50
2022-08-05T04:22:08.318Z,72.29
2022-08-05T04:24:19.355Z,70.78
2022-08-05T04:26:50.251Z,72.31
2022-08-05T04:29:17.124Z,72.69
2022-08-05T04:31:43.943Z,71.53
2022-08-05T04:34:31.830Z,72.22
2022-08-05T04:37:00.116Z,74.44
2022-08-05T04:39:27.882Z,72.20
2022-08-05T04:41:55.446Z,73.91
2022-08-05T04:44:29.455Z,72.03
2022-08-05T04:47:09.628Z,72.77
2022-08-05T04:50:01.495Z,73.05
2022-08-05T04:52:28.261Z,73.79
2022-08-05T04:54:57.094Z,73.77
2022-08-05T04:57:29.271Z,73.80
2022-08-05T04:59:58.615Z,74.36
2022-08-05T05:02:41.291Z,73.44
2022-08-05T05:05:26.209Z,73.43
2022-08-05T05:08:01.794Z,74.23
2022-08-05T05:10:33.859Z,74.63
2022-08-05T05:13:03.767Z,75.49
2022-08-05T05:15:56.739Z,74.69
2022-08-05T05:18:28.694Z,74.88
2022-08-05T05:21:00.095Z,74.75
2022-08-05T05:23:27.240Z,74.65
2022-08-05T05:26:14.141Z,76.00
2022-08-05T05:28:44.741Z,75.21
2022-08-05T05:31:12.396Z,74.73
2022-08-05T05:33:58.748Z,74.64
2022-08-05T05:36:28.536Z,75.99
2022-08-05T05:38:57.309Z,75.31
2022-08-05T05:41:24.625Z,75.77
2022-08-05T05:43:58.493Z,76.83
2022-08-05T05:46:27.618Z,75.98
2022-08-05T05:48:54.460Z,76.23
2022-08-05T05:51:27.904Z,76.94
2022-08-05T05:53:59.495Z,76.23
2022-08-05T05:56:31.555Z,76.12
2022-08-05T05:59:03.444Z,76.09
2022-08-05T06:01:38.197Z,75.43
2022-08-05T06:04:13.180Z,76.20
2022-08-05T06:06:43.095Z,74.91
2022-08-05T06:09:17.300Z,74.98
2022-08-05T06:12:01.160Z,74.96
2022-08-05T06:14:34.628Z,75.79
2022-08-05T06:17:22.063Z,75.80
2022-08-05T06:19:56.567Z,75.91
2022-08-05T06:22:34.804Z,75.05
2022-08-05T06:25:59.251Z,74.98
2022-08-05T06:28:10.965Z,74.32
2022-08-05T06:30:39.257Z,74.48
2022-08-05T06:33:09.927Z,74.72
2022-08-05T06:36:07.137Z,75.22
2022-08-05T06:38:35.821Z,74.70
2022-08-05T06:41:05.062Z,72.94
2022-08-05T06:43:57.661Z,74.58
2022-08-05T06:46:19.328Z,74.01
2022-08-05T06:48:53.685Z,72.94
2022-08-05T06:51:30.217Z,71.44
2022-08-05T06:54:02.349Z,70.78
2022-08-05T06:56:30.416Z,71.85
2022-08-05T06:59:01.818Z,71.17
2022-08-05T07:01:32.588Z,71.40
2022-08-05T07:04:03.124Z,70.26
2022-08-05T07:06:30.483Z,70.02
2022-08-05T07:08:59.246Z,71.30
2022-08-05T07:11:28.728Z,71.02
2022-08-05T07:14:20.220Z,71.17
2022-08-05T07:18:01.399Z,71.33
2022-08-05T07:22:29.134Z,72.11
2022-08-05T07:25:22.444Z,70.52
2022-08-05T07:27:58.398Z,70.06
2022-08-05T07:30:34.481Z,70.16
2022-08-05T07:33:09.206Z,70.48
2022-08-05T07:35:56.817Z,70.40
2022-08-05T07:38:33.210Z,70.11
2022-08-05T07:42:06.799Z,68.97
2022-08-05T07:43:53.258Z,69.76
2022-08-05T07:46:25.319Z,69.59
2022-08-05T07:49:02.068Z,68.82
2022-08-05T07:51:37.215Z,69.27
2022-08-05T07:54:09.705Z,69.15
2022-08-05T07:57:00.412Z,69.55
2022-08-05T07:59:38.027Z,67.90
2022-08-05T08:02:15.916Z,68.92
2022-08-05T08:04:46.571Z,67.18
2022-08-05T08:07:14.046Z,65.97
2022-08-05T08:09:42.164Z,64.71
2022-08-05T08:12:19.943Z,63.03
2022-08-05T08:14:56.089Z,63.08
2022-08-05T08:17:23.702Z,63.90
2022-08-05T08:20:21.751Z,64.20
2022-08-05T08:22:41.617Z,63.60
2022-08-05T08:25:15.768Z,62.87
2022-08-05T08:27:47.412Z,62.71
2022-08-05T08:30:29.840Z,62.71
2022-08-05T08:33:04.686Z,62.69
2022-08-05T08:35:41.027Z,62.22
2022-08-05T08:38:11.850Z,62.36
2022-08-05T08:40:47.788Z,62.17
2022-08-05T08:44:56.398Z,61.06
2022-08-05T08:46:06.729Z,60.19
2022-08-05T08:48:59.374Z,60.34
2022-08-05T08:52:03.820Z,59.27
2022-08-05T08:54:13.755Z,59.86
2022-08-05T08:56:47.738Z,59.57
2022-08-05T08:59:20.779Z,57.60
2022-08-05T09:01:57.350Z,58.27
2022-08-05T09:04:30.327Z,56.95
2022-08-05T09:06:58.639Z,57.13
2022-08-05T09:09:34.845Z,56.28
2022-08-05T09:12:20.039Z,56.68
2022-08-05T09:14:59.377Z,55.04
2022-08-05T09:17:42.256Z,56.33
2022-08-05T09:20:11.598Z,55.19
2022-08-05T09:23:18.734Z,55.28
2022-08-05T09:26:02.843Z,54.72
2022-08-05T09:28:33.418Z,55.82
2022-08-05T09:31:23.542Z,54.81
2022-08-05T09:34:07.808Z,54.34
2022-08-05T09:36:54.115Z,52.72
2022-08-05T09:39:27.778Z,53.03
2022-08-05T09:42:13.625Z,53.37
2022-08-05T09:44:56.401Z,54.12
2022-08-05T09:47:26.265Z,54.34
2022-08-05T09:50:02.536Z,52.86
2022-08-05T09:52:32.075Z,52.40
2022-08-05T09:55:06.454Z,52.84
2022-08-05T09:57:48.706Z,53.34
2022-08-05T10:00:21.252Z,53.02
2022-08-05T10:02:58.469Z,53.67
2022-08-05T10:05:27.998Z,52.61
2022-08-05T10:08:34.917Z,52.90
2022-08-05T10:10:44.181Z,52.38
2022-08-05T10:13:11.533Z,51.63
2022-08-05T10:15:41.827Z,51.23
2022-08-05T10:18:12.398Z,50.29
2022-08-05T10:20:44.101Z,48.64
2022-08-05T10:23:34.617Z,48.69
2022-08-05T10:26:08.089Z,49.83
2022-08-05T10:28:44.056Z,49.45
2022-08-05T10:32:47.307Z,49.95
2022-08-05T10:34:01.305Z,50.14
2022-08-05T10:36:28.507Z,49.50
2022-08-05T10:39:01.260Z,48.86
2022-08-05T10:41:47.374Z,48.78
2022-08-05T10:44:17.934Z,48.49
2022-08-05T10:46:54.084Z,47.58
2022-08-05T10:49:27.188Z,48.69
2022-08-05T10:52:02.725Z,47.97
2022-08-05T10:55:02.350Z,47.38
2022-08-05T10:57:31.916Z,46.44
2022-08-05T11:00:22.864Z,44.13
2022-08-05T11:03:24.452Z,45.12
2022-08-05T11:06:08.402Z,46.28
2022-08-05T11:09:24.417Z,46.63
2022-08-05T11:12:07.289Z,49.51
2022-08-05T11:15:01.040Z,50.55
2022-08-05T11:17:59.624Z,50.77
2022-08-05T11:20:44.016Z,49.85
2022-08-05T11:23:33.626Z,50.01
2022-08-05T11:26:11.642Z,49.32
2022-08-05T11:28:43.243Z,47.67
2022-08-05T11:31:10.330Z,47.26
2022-08-05T11:33:51.748Z,45.04
2022-08-05T11:36:42.821Z,45.44
2022-08-05T11:39:12.147Z,46.25
2022-08-05T11:42:01.508Z,45.79
2022-08-05T11:44:53.274Z,46.72
2022-08-05T11:47:48.235Z,47.74
2022-08-05T11:50:10.371Z,49.22
2022-08-05T11:52:40.912Z,48.05
2022-08-05T11:55:11.470Z,48.45
2022-08-05T11:58:09.388Z,47.65
2022-08-05T12:00:38.372Z,48.21
2022-08-05T12:03:16.738Z,49.05
2022-08-05T12:06:03.142Z,48.98
2022-08-05T12:08:33.369Z,48.72
2022-08-05T12:11:05.435Z,49.06
2022-08-05T12:13:49.631Z,48.12
2022-08-05T12:16:20.368Z,47.28
2022-08-05T12:18:55.142Z,48.48
2022-08-05T12:21:30.052Z,49.65
2022-08-05T12:24:10.884Z,48.90
2022-08-05T12:26:44.236Z,48.48
2022-08-05T12:29:22.736Z,45.85
2022-08-05T12:32:02.220Z,45.54
2022-08-05T12:34:35.773Z,44.79
2022-08-05T12:37:10.806Z,45.40
2022-08-05T12:39:45.141Z,45.74
2022-08-05T12:42:19.685Z,46.54
2022-08-05T12:44:47.602Z,45.33
2022-08-05T12:47:31.924Z,46.17
2022-08-05T12:50:02.086Z,47.42
2022-08-05T12:52:39.487Z,46.54
2022-08-05T12:55:25.514Z,49.34
2022-08-05T12:58:49.054Z,47.05
2022-08-05T13:02:00.872Z,47.91
2022-08-05T13:03:39.096Z,48.26
2022-08-05T13:06:11.650Z,46.22
2022-08-05T13:08:38.904Z,42.32
2022-08-05T13:11:07.915Z,41.29
2022-08-05T13:14:05.103Z,41.18
2022-08-05T13:16:27.987Z,38.12
2022-08-05T13:18:57.968Z,38.20
2022-08-05T13:21:28.135Z,39.58
2022-08-05T13:24:04.936Z,41.56
2022-08-05T13:26:31.742Z,44.70
2022-08-05T13:28:59.188Z,46.71
2022-08-05T13:32:02.933Z,47.25
2022-08-05T13:34:21.944Z,46.21
2022-08-05T13:36:53.219Z,47.42
2022-08-05T13:40:14.631Z,46.66
2022-08-05T13:42:07.690Z,47.59
2022-08-05T13:44:45.428Z,46.78
2022-08-05T13:47:34.657Z,46.57
2022-08-05T13:50:04.252Z,44.53
2022-08-05T13:52:32.294Z,45.24
2022-08-05T13:55:07.932Z,43.64
2022-08-05T13:57:50.702Z,44.67
2022-08-05T14:00:30.646Z,44.39
2022-08-05T14:02:57.782Z,45.14
2022-08-05T14:05:47.929Z,45.15
2022-08-05T14:08:21.352Z,46.09
2022-08-05T14:11:03.362Z,44.66
2022-08-05T14:13:42.418Z,43.50
2022-08-05T14:16:11.473Z,44.52
2022-08-05T14:18:38.699Z,43.15
2022-08-05T14:22:08.794Z,43.00
2022-08-05T14:23:53.700Z,43.93
2022-08-05T14:26:35.673Z,41.46
2022-08-05T14:29:06.476Z,42.56
2022-08-05T14:32:03.026Z,42.28
2022-08-05T14:34:35.135Z,40.98
2022-08-05T14:37:04.497Z,38.25
2022-08-05T14:39:49.474Z,38.22
2022-08-05T14:42:21.388Z,38.57
2022-08-05T14:44:56.561Z,35.83
2022-08-05T14:48:04.006Z,37.35
2022-08-05T14:50:17.849Z,34.92
2022-08-05T14:52:52.954Z,37.50
2022-08-05T14:55:20.282Z,36.05
2022-08-05T14:57:54.201Z,36.78
2022-08-05T15:00:27.864Z,37.54
2022-08-05T15:02:55.617Z,40.00
2022-08-05T15:05:29.828Z,39.49
2022-08-05T15:08:08.546Z,39.83
2022-08-05T15:10:41.554Z,42.72
2022-08-05T15:13:10.079Z,39.93
2022-08-05T15:15:54.314Z,40.75
2022-08-05T15:18:23.691Z,42.44
2022-08-05T15:20:50.943Z,43.64
2022-08-05T15:23:18.293Z,48.62
2022-08-05T15:25:51.996Z,49.24
2022-08-05T15:28:27.017Z,48.96
2022-08-05T15:30:55.113Z,50.81
2022-08-05T15:34:05.014Z,51.21
2022-08-05T15:36:17.357Z,48.93
2022-08-05T15:40:41.369Z,47.85
2022-08-05T15:41:55.939Z,45.91
2022-08-05T15:44:24.153Z,42.87
2022-08-05T15:46:52.667Z,43.73
2022-08-05T15:49:27.441Z,43.53
2022-08-05T15:52:16.909Z,44.02
2022-08-05T15:54:53.685Z,43.78
2022-08-05T15:57:23.612Z,42.22
2022-08-05T15:59:54.034Z,42.80
2022-08-05T16:02:25.505Z,42.44
2022-08-05T16:04:55.371Z,42.45
2022-08-05T16:07:22.898Z,39.82
2022-08-05T16:09:50.183Z,40.61
2022-08-05T16:12:17.594Z,42.94
2022-08-05T16:14:46.934Z,43.72
2022-08-05T16:17:13.833Z,46.75
2022-08-05T16:20:03.640Z,48.51
2022-08-05T16:22:34.025Z,49.49
2022-08-05T16:25:05.441Z,46.02
2022-08-05T16:27:59.740Z,45.63
2022-08-05T16:30:26.141Z,47.23
2022-08-05T16:32:54.103Z,47.00
2022-08-05T16:35:27.877Z,47.42
2022-08-05T16:38:15.304Z,50.40
2022-08-05T16:40:51.894Z,47.37
2022-08-05T16:43:24.134Z,47.16
2022-08-05T16:46:04.636Z,45.55
2022-08-05T16:48:35.955Z,42.54
2022-08-05T16:51:08.654Z,43.46
2022-08-05T16:54:02.865Z,46.23
2022-08-05T16:56:24.154Z,44.33
2022-08-05T16:58:51.390Z,45.50
2022-08-05T17:01:19.144Z,48.50
2022-08-05T17:03:46.539Z,47.78
2022-08-05T17:06:16.627Z,48.96
2022-08-05T17:08:52.763Z,51.26
2022-08-05T17:11:25.515Z,46.04
2022-08-05T17:14:00.550Z,44.80
2022-08-05T17:16:37.987Z,47.12
2022-08-05T17:19:07.517Z,47.98
2022-08-05T17:21:37.316Z,49.17
2022-08-05T17:24:14.395Z,51.56
2022-08-05T17:26:53.706Z,58.36
2022-08-05T17:29:39.804Z,59.02
2022-08-05T17:32:26.123Z,61.37
2022-08-05T17:34:53.082Z,61.97
2022-08-05T17:37:40.648Z,62.54
2022-08-05T17:40:10.148Z,59.03
2022-08-05T17:42:41.436Z,63.80
2022-08-05T17:45:20.694Z,65.01
2022-08-05T17:47:54.891Z,61.51
2022-08-05T17:50:29.517Z,61.39
2022-08-05T17:52:59.586Z,61.67
2022-08-05T17:55:34.713Z,61.90
2022-08-05T17:58:10.837Z,59.92
2022-08-05T18:00:44.971Z,60.01
2022-08-05T18:03:27.988Z,58.84
2022-08-05T18:06:04.901Z,59.45
2022-08-05T18:08:33.725Z,61.18
2022-08-05T18:11:01.165Z,56.69
2022-08-05T18:13:36.854Z,56.86
2022-08-05T18:16:13.705Z,58.08
2022-08-05T18:18:41.249Z,58.20
2022-08-05T18:21:13.386Z,57.83
2022-08-05T18:23:47.337Z,58.15
2022-08-05T18:26:14.698Z,58.60
2022-08-05T18:28:46.359Z,58.03
2022-08-05T18:31:13.432Z,59.11
2022-08-05T18:33:47.113Z,56.00
2022-08-05T18:36:17.366Z,57.62
2022-08-05T18:38:46.226Z,57.77
2022-08-05T18:41:55.880Z,57.28
2022-08-05T18:44:06.276Z,58.24
2022-08-05T18:46:34.606Z,56.87
2022-08-05T18:49:21.283Z,57.16
2022-08-05T18:52:08.835Z,57.35
2022-08-05T18:54:36.022Z,57.74
2022-08-05T18:57:09.658Z,55.75
2022-08-05T19:00:01.452Z,54.86
2022-08-05T19:02:29.605Z,56.51
2022-08-05T19:05:02.981Z,53.61
2022-08-05T19:07:50.127Z,57.39
2022-08-05T19:10:28.162Z,56.73
2022-08-05T19:12:58.765Z,58.95
2022-08-05T19:15:59.815Z,57.91
2022-08-05T19:18:21.886Z,58.66
2022-08-05T19:20:54.011Z,58.80
2022-08-05T19:24:03.604Z,60.77
2022-08-05T19:26:09.304Z,61.39
2022-08-05T19:28:42.070Z,61.33
2022-08-05T19:31:09.548Z,60.22
2022-08-05T19:33:40.728Z,60.93
2022-08-05T19:36:16.993Z,62.22
2022-08-05T19:38:45.539Z,61.79
2022-08-05T19:41:12.775Z,61.68
2022-08-05T19:44:06.283Z,61.57
2022-08-05T19:46:30.268Z,63.21
2022-08-05T19:49:01.133Z,63.16
2022-08-05T19:52:08.536Z,61.95
2022-08-05T19:54:25.474Z,61.93
2022-08-05T19:56:58.830Z,64.01
2022-08-05T19:59:54.000Z,63.58
2022-08-05T20:02:14.883Z,62.31
2022-08-05T20:04:45.839Z,60.34
2022-08-05T20:07:14.159Z,62.57
2022-08-05T20:09:55.000Z,63.37
2022-08-05T20:12:25.344Z,62.03
2022-08-05T20:14:53.245Z,61.41
2022-08-05T20:17:23.533Z,61.47
2022-08-05T20:19:56.743Z,61.15
2022-08-05T20:22:26.790Z,61.50
2022-08-05T20:24:55.489Z,61.35
2022-08-05T20:27:26.939Z,62.13
2022-08-05T20:29:58.959Z,60.83
2022-08-05T20:32:27.146Z,60.24
2022-08-05T20:34:54.866Z,61.54
2022-08-05T20:38:04.732Z,59.04
2022-08-05T20:40:10.013Z,60.88
2022-08-05T20:42:36.933Z,60.05
2022-08-05T20:45:05.249Z,61.50
2022-08-05T20:47:32.853Z,62.50
2022-08-05T20:50:02.266Z,62.61
2022-08-05T20:52:30.017Z,60.20
2022-08-05T20:55:15.935Z,59.90
2022-08-05T20:57:45.097Z,61.81
2022-08-05T21:00:40.709Z,61.17
2022-08-05T21:03:06.360Z,60.27
2022-08-05T21:05:47.665Z,60.18
2022-08-05T21:08:28.106Z,62.03
2022-08-05T21:11:11.629Z,63.10
2022-08-05T21:13:55.758Z,62.71
2022-08-05T21:16:29.938Z,63.30
2022-08-05T21:19:00.332Z,64.40
2022-08-05T21:21:39.231Z,63.60
2022-08-05T21:24:13.134Z,63.20
2022-08-05T21:26:41.391Z,62.03
2022-08-05T21:29:12.564Z,62.18
2022-08-05T21:31:43.669Z,61.63
2022-08-05T21:34:11.364Z,62.97
2022-08-05T21:36:39.239Z,59.78
2022-08-05T21:39:10.151Z,58.74
2022-08-05T21:41:41.703Z,59.63
2022-08-05T21:44:19.329Z,59.94
2022-08-05T21:46:54.030Z,59.28
2022-08-05T21:49:48.364Z,60.18
2022-08-05T21:52:22.458Z,61.18
2022-08-05T21:54:57.084Z,61.08
2022-08-05T21:57:32.534Z,61.66
2022-08-05T22:00:05.969Z,60.65
2022-08-05T22:02:42.878Z,61.04
2022-08-05T22:05:11.571Z,60.98
2022-08-05T22:07:54.274Z,61.11
2022-08-05T22:14:18.277Z,62.42
2022-08-05T22:16:39.623Z,61.97
2022-08-05T22:19:03.097Z,61.93
2022-08-05T22:21:42.167Z,61.34
2022-08-05T22:24:39.729Z,60.72
2022-08-05T22:28:09.781Z,62.28
2022-08-05T22:30:15.121Z,62.80
2022-08-05T22:32:44.226Z,62.20
2022-08-05T22:35:13.347Z,62.75
2022-08-05T22:37:58.984Z,64.11
2022-08-05T22:40:26.817Z,63.59
2022-08-05T22:42:58.139Z,64.82
2022-08-05T22:45:26.510Z,65.42
2022-08-05T22:47:57.250Z,67.30
2022-08-05T22:50:27.702Z,65.60
2022-08-05T22:52:55.107Z,65.87
2022-08-05T22:55:23.661Z,68.40
2022-08-05T22:57:51.828Z,67.06
2022-08-05T23:00:21.515Z,66.13
2022-08-05T23:02:49.830Z,65.57
2022-08-05T23:05:17.616Z,64.78
2022-08-05T23:07:49.581Z,65.85
2022-08-05T23:10:20.059Z,65.69
2022-08-05T23:12:51.286Z,66.21
2022-08-05T23:15:22.671Z,66.05
2022-08-05T23:18:01.819Z,66.95
2022-08-05T23:20:31.477Z,66.83
2022-08-05T23:22:59.298Z,66.32
2022-08-05T23:25:50.923Z,66.68
2022-08-05T23:28:15.876Z,65.88
2022-08-05T23:30:53.583Z,65.62
2022-08-05T23:33:39.314Z,65.87
2022-08-05T23:36:10.557Z,64.03
2022-08-05T23:38:38.180Z,64.51
2022-08-05T23:41:05.149Z,64.89
2022-08-05T23:43:37.323Z,65.37
2022-08-05T23:46:21.982Z,65.04
2022-08-05T23:49:01.076Z,64.54
2022-08-05T23:51:57.088Z,65.58
2022-08-05T23:54:29.971Z,65.47
2022-08-05T23:57:03.728Z,65.27
